sensor_id;sensor_type;location;lat;lon;timestamp;pressure;altitude;pressure_sealevel;temperature
58307;BMP280;44116;50.884;4.768;2023-07-31T00:01:53;100700.0;;;17.1
58307;BMP280;44116;50.884;4.768;2023-07-31T00:03:53;100700.0;;;16.9
58307;BMP280;44116;50.884;4.768;2023-07-31T00:05:53;100690.0;;;17.2
58307;BMP280;44116;50.884;4.768;2023-07-31T00:07:53;100700.0;;;17.1
58307;BMP280;44116;50.884;4.768;2023-07-31T00:09:53;100690.0;;;17.3
58307;BMP280;44116;50.884;4.768;2023-07-31T00:11:53;100690.0;;;17.3
58307;BMP280;44116;50.884;4.768;2023-07-31T00:13:53;100690.0;;;17.1
58307;BMP280;44116;50.884;4.768;2023-07-31T00:15:53;100690.0;;;17.2
58307;BMP280;44116;50.884;4.768;2023-07-31T00:17:52;100690.0;;;17.2
58307;BMP280;44116;50.884;4.768;2023-07-31T00:19:52;100690.0;;;17.1
58307;BMP280;44116;50.884;4.768;2023-07-31T00:23:52;100690.0;;;17.0
58307;BMP280;44116;50.884;4.768;2023-07-31T00:25:52;100680.0;;;16.9
58307;BMP280;44116;50.884;4.768;2023-07-31T00:29:52;100670.0;;;16.9
58307;BMP280;44116;50.884;4.768;2023-07-31T00:31:52;100670.0;;;17.1
58307;BMP280;44116;50.884;4.768;2023-07-31T00:33:52;100670.0;;;17.1
58307;BMP280;44116;50.884;4.768;2023-07-31T00:35:52;100660.0;;;16.8
58307;BMP280;44116;50.884;4.768;2023-07-31T00:37:52;100660.0;;;17.0
58307;BMP280;44116;50.884;4.768;2023-07-31T00:39:52;100660.0;;;16.9
58307;BMP280;44116;50.884;4.768;2023-07-31T00:41:52;100660.0;;;17.0
58307;BMP280;44116;50.884;4.768;2023-07-31T00:43:51;100660.0;;;17.1
58307;BMP280;44116;50.884;4.768;2023-07-31T00:45:51;100660.0;;;17.1
58307;BMP280;44116;50.884;4.768;2023-07-31T00:47:51;100660.0;;;17.1
58307;BMP280;44116;50.884;4.768;2023-07-31T00:49:51;100660.0;;;17.1
58307;BMP280;44116;50.884;4.768;2023-07-31T00:51:51;100660.0;;;17.2
58307;BMP280;44116;50.884;4.768;2023-07-31T00:53:51;100650.0;;;17.2
58307;BMP280;44116;50.884;4.768;2023-07-31T00:55:51;100640.0;;;17.0
58307;BMP280;44116;50.884;4.768;2023-07-31T00:57:51;100640.0;;;17.2
58307;BMP280;44116;50.884;4.768;2023-07-31T01:01:51;100640.0;;;17.1
58307;BMP280;44116;50.884;4.768;2023-07-31T01:03:51;100630.0;;;17.0
58307;BMP280;44116;50.884;4.768;2023-07-31T01:05:53;100630.0;;;17.2
58307;BMP280;44116;50.884;4.768;2023-07-31T01:07:52;100630.0;;;17.2
58307;BMP280;44116;50.884;4.768;2023-07-31T01:09:52;100630.0;;;17.1
58307;BMP280;44116;50.884;4.768;2023-07-31T01:11:52;100630.0;;;17.1
58307;BMP280;44116;50.884;4.768;2023-07-31T01:13:50;100630.0;;;17.2
58307;BMP280;44116;50.884;4.768;2023-07-31T01:15:50;100630.0;;;17.2
58307;BMP280;44116;50.884;4.768;2023-07-31T01:17:50;100630.0;;;17.3
58307;BMP280;44116;50.884;4.768;2023-07-31T01:21:56;100630.0;;;17.2
58307;BMP280;44116;50.884;4.768;2023-07-31T01:26:00;100630.0;;;17.2
58307;BMP280;44116;50.884;4.768;2023-07-31T01:29:52;100630.0;;;17.1
58307;BMP280;44116;50.884;4.768;2023-07-31T01:31:50;100630.0;;;17.0
58307;BMP280;44116;50.884;4.768;2023-07-31T01:33:50;100630.0;;;17.1
58307;BMP280;44116;50.884;4.768;2023-07-31T01:35:49;100620.0;;;17.1
58307;BMP280;44116;50.884;4.768;2023-07-31T01:37:51;100630.0;;;17.0
58307;BMP280;44116;50.884;4.768;2023-07-31T01:39:50;100630.0;;;17.0
58307;BMP280;44116;50.884;4.768;2023-07-31T01:41:49;100630.0;;;17.2
58307;BMP280;44116;50.884;4.768;2023-07-31T01:43:49;100630.0;;;17.3
58307;BMP280;44116;50.884;4.768;2023-07-31T01:45:49;100630.0;;;17.2
58307;BMP280;44116;50.884;4.768;2023-07-31T01:47:49;100630.0;;;17.2
58307;BMP280;44116;50.884;4.768;2023-07-31T01:49:49;100630.0;;;17.3
58307;BMP280;44116;50.884;4.768;2023-07-31T01:51:49;100630.0;;;17.1
58307;BMP280;44116;50.884;4.768;2023-07-31T01:53:49;100630.0;;;17.2
58307;BMP280;44116;50.884;4.768;2023-07-31T01:55:49;100620.0;;;17.2
58307;BMP280;44116;50.884;4.768;2023-07-31T01:57:49;100620.0;;;17.3
58307;BMP280;44116;50.884;4.768;2023-07-31T01:59:49;100610.0;;;17.0
58307;BMP280;44116;50.884;4.768;2023-07-31T02:01:48;100610.0;;;17.2
58307;BMP280;44116;50.884;4.768;2023-07-31T02:03:48;100610.0;;;17.2
58307;BMP280;44116;50.884;4.768;2023-07-31T02:05:49;100600.0;;;17.2
58307;BMP280;44116;50.884;4.768;2023-07-31T02:07:48;100600.0;;;17.3
58307;BMP280;44116;50.884;4.768;2023-07-31T02:09:48;100600.0;;;17.1
58307;BMP280;44116;50.884;4.768;2023-07-31T02:11:48;100590.0;;;17.4
58307;BMP280;44116;50.884;4.768;2023-07-31T02:13:48;100580.0;;;17.0
58307;BMP280;44116;50.884;4.768;2023-07-31T02:15:48;100580.0;;;17.1
58307;BMP280;44116;50.884;4.768;2023-07-31T02:17:48;100580.0;;;17.2
58307;BMP280;44116;50.884;4.768;2023-07-31T02:19:48;100580.0;;;17.3
58307;BMP280;44116;50.884;4.768;2023-07-31T02:23:48;100580.0;;;17.3
58307;BMP280;44116;50.884;4.768;2023-07-31T02:25:48;100570.0;;;17.5
58307;BMP280;44116;50.884;4.768;2023-07-31T02:27:48;100570.0;;;17.4
58307;BMP280;44116;50.884;4.768;2023-07-31T02:29:48;100570.0;;;17.3
58307;BMP280;44116;50.884;4.768;2023-07-31T02:31:48;100570.0;;;17.3
58307;BMP280;44116;50.884;4.768;2023-07-31T02:33:48;100570.0;;;17.4
58307;BMP280;44116;50.884;4.768;2023-07-31T02:35:47;100560.0;;;17.3
58307;BMP280;44116;50.884;4.768;2023-07-31T02:37:47;100560.0;;;17.2
58307;BMP280;44116;50.884;4.768;2023-07-31T02:39:47;100550.0;;;17.1
58307;BMP280;44116;50.884;4.768;2023-07-31T02:43:47;100550.0;;;17.2
58307;BMP280;44116;50.884;4.768;2023-07-31T02:47:47;100540.0;;;17.0
58307;BMP280;44116;50.884;4.768;2023-07-31T02:49:47;100530.0;;;17.1
58307;BMP280;44116;50.884;4.768;2023-07-31T02:51:47;100530.0;;;17.2
58307;BMP280;44116;50.884;4.768;2023-07-31T02:55:47;100530.0;;;17.2
58307;BMP280;44116;50.884;4.768;2023-07-31T02:57:47;100530.0;;;17.2
58307;BMP280;44116;50.884;4.768;2023-07-31T02:59:47;100530.0;;;17.1
58307;BMP280;44116;50.884;4.768;2023-07-31T03:01:47;100520.0;;;17.1
58307;BMP280;44116;50.884;4.768;2023-07-31T03:03:47;100510.0;;;17.1
58307;BMP280;44116;50.884;4.768;2023-07-31T03:07:46;100510.0;;;17.1
58307;BMP280;44116;50.884;4.768;2023-07-31T03:09:46;100510.0;;;17.1
58307;BMP280;44116;50.884;4.768;2023-07-31T03:11:46;100510.0;;;17.1
58307;BMP280;44116;50.884;4.768;2023-07-31T03:13:46;100510.0;;;17.1
58307;BMP280;44116;50.884;4.768;2023-07-31T03:15:46;100510.0;;;17.1
58307;BMP280;44116;50.884;4.768;2023-07-31T03:17:46;100510.0;;;17.3
58307;BMP280;44116;50.884;4.768;2023-07-31T03:19:46;100510.0;;;17.4
58307;BMP280;44116;50.884;4.768;2023-07-31T03:21:46;100520.0;;;17.2
58307;BMP280;44116;50.884;4.768;2023-07-31T03:25:55;100510.0;;;17.2
58307;BMP280;44116;50.884;4.768;2023-07-31T03:29:46;100500.0;;;17.2
58307;BMP280;44116;50.884;4.768;2023-07-31T03:31:46;100500.0;;;17.1
58307;BMP280;44116;50.884;4.768;2023-07-31T03:33:46;100500.0;;;17.2
58307;BMP280;44116;50.884;4.768;2023-07-31T03:35:46;100500.0;;;17.2
58307;BMP280;44116;50.884;4.768;2023-07-31T03:37:46;100500.0;;;17.1
58307;BMP280;44116;50.884;4.768;2023-07-31T03:39:46;100500.0;;;17.1
58307;BMP280;44116;50.884;4.768;2023-07-31T03:43:46;100490.0;;;17.3
58307;BMP280;44116;50.884;4.768;2023-07-31T03:45:45;100490.0;;;17.2
58307;BMP280;44116;50.884;4.768;2023-07-31T03:49:45;100480.0;;;17.1
58307;BMP280;44116;50.884;4.768;2023-07-31T03:51:45;100480.0;;;17.2
58307;BMP280;44116;50.884;4.768;2023-07-31T03:53:45;100480.0;;;17.1
58307;BMP280;44116;50.884;4.768;2023-07-31T03:55:45;100470.0;;;17.2
58307;BMP280;44116;50.884;4.768;2023-07-31T03:57:45;100470.0;;;17.2
58307;BMP280;44116;50.884;4.768;2023-07-31T04:01:45;100450.0;;;17.1
58307;BMP280;44116;50.884;4.768;2023-07-31T04:03:45;100450.0;;;17.0
58307;BMP280;44116;50.884;4.768;2023-07-31T04:05:45;100450.0;;;17.0
58307;BMP280;44116;50.884;4.768;2023-07-31T04:07:45;100450.0;;;17.0
58307;BMP280;44116;50.884;4.768;2023-07-31T04:09:45;100450.0;;;17.1
58307;BMP280;44116;50.884;4.768;2023-07-31T04:11:45;100450.0;;;17.1
58307;BMP280;44116;50.884;4.768;2023-07-31T04:15:47;100450.0;;;17.0
58307;BMP280;44116;50.884;4.768;2023-07-31T04:17:44;100430.0;;;17.0
58307;BMP280;44116;50.884;4.768;2023-07-31T04:19:44;100440.0;;;16.9
58307;BMP280;44116;50.884;4.768;2023-07-31T04:21:44;100420.0;;;17.0
58307;BMP280;44116;50.884;4.768;2023-07-31T04:25:44;100420.0;;;16.9
58307;BMP280;44116;50.884;4.768;2023-07-31T04:27:44;100410.0;;;17.1
58307;BMP280;44116;50.884;4.768;2023-07-31T04:29:44;100390.0;;;17.6
58307;BMP280;44116;50.884;4.768;2023-07-31T04:35:48;100410.0;;;17.3
58307;BMP280;44116;50.884;4.768;2023-07-31T04:37:44;100410.0;;;17.2
58307;BMP280;44116;50.884;4.768;2023-07-31T04:39:44;100410.0;;;16.9
58307;BMP280;44116;50.884;4.768;2023-07-31T04:41:44;100410.0;;;17.0
58307;BMP280;44116;50.884;4.768;2023-07-31T04:43:44;100410.0;;;17.2
58307;BMP280;44116;50.884;4.768;2023-07-31T04:45:45;100410.0;;;16.9
58307;BMP280;44116;50.884;4.768;2023-07-31T04:49:43;100400.0;;;16.9
58307;BMP280;44116;50.884;4.768;2023-07-31T04:51:43;100400.0;;;16.9
58307;BMP280;44116;50.884;4.768;2023-07-31T04:55:43;100390.0;;;16.9
58307;BMP280;44116;50.884;4.768;2023-07-31T04:57:43;100380.0;;;17.0
58307;BMP280;44116;50.884;4.768;2023-07-31T04:59:43;100390.0;;;17.1
58307;BMP280;44116;50.884;4.768;2023-07-31T05:03:43;100390.0;;;17.0
58307;BMP280;44116;50.884;4.768;2023-07-31T05:05:43;100380.0;;;17.0
58307;BMP280;44116;50.884;4.768;2023-07-31T05:07:43;100390.0;;;16.9
58307;BMP280;44116;50.884;4.768;2023-07-31T05:09:43;100380.0;;;17.0
58307;BMP280;44116;50.884;4.768;2023-07-31T05:11:43;100380.0;;;16.9
58307;BMP280;44116;50.884;4.768;2023-07-31T05:13:43;100380.0;;;16.9
58307;BMP280;44116;50.884;4.768;2023-07-31T05:15:43;100380.0;;;17.0
58307;BMP280;44116;50.884;4.768;2023-07-31T05:17:42;100390.0;;;17.1
58307;BMP280;44116;50.884;4.768;2023-07-31T05:19:42;100380.0;;;16.8
58307;BMP280;44116;50.884;4.768;2023-07-31T05:21:42;100380.0;;;17.0
58307;BMP280;44116;50.884;4.768;2023-07-31T05:23:42;100380.0;;;17.0
58307;BMP280;44116;50.884;4.768;2023-07-31T05:29:42;100380.0;;;16.9
58307;BMP280;44116;50.884;4.768;2023-07-31T05:31:42;100380.0;;;16.4
58307;BMP280;44116;50.884;4.768;2023-07-31T05:33:42;100370.0;;;16.6
58307;BMP280;44116;50.884;4.768;2023-07-31T05:35:42;100370.0;;;16.9
58307;BMP280;44116;50.884;4.768;2023-07-31T05:37:42;100360.0;;;16.9
58307;BMP280;44116;50.884;4.768;2023-07-31T05:39:42;100360.0;;;16.8
58307;BMP280;44116;50.884;4.768;2023-07-31T05:41:42;100360.0;;;16.9
58307;BMP280;44116;50.884;4.768;2023-07-31T05:43:42;100360.0;;;16.8
58307;BMP280;44116;50.884;4.768;2023-07-31T05:45:41;100350.0;;;16.8
58307;BMP280;44116;50.884;4.768;2023-07-31T05:47:41;100350.0;;;16.9
58307;BMP280;44116;50.884;4.768;2023-07-31T05:49:41;100340.0;;;16.7
58307;BMP280;44116;50.884;4.768;2023-07-31T05:51:41;100340.0;;;16.5
58307;BMP280;44116;50.884;4.768;2023-07-31T05:55:41;100340.0;;;16.6
58307;BMP280;44116;50.884;4.768;2023-07-31T05:57:41;100340.0;;;16.7
58307;BMP280;44116;50.884;4.768;2023-07-31T05:59:41;100340.0;;;16.7
58307;BMP280;44116;50.884;4.768;2023-07-31T06:01:41;100330.0;;;16.7
58307;BMP280;44116;50.884;4.768;2023-07-31T06:03:41;100330.0;;;16.7
58307;BMP280;44116;50.884;4.768;2023-07-31T06:05:41;100340.0;;;16.5
58307;BMP280;44116;50.884;4.768;2023-07-31T06:07:41;100340.0;;;16.6
58307;BMP280;44116;50.884;4.768;2023-07-31T06:09:40;100330.0;;;16.6
58307;BMP280;44116;50.884;4.768;2023-07-31T06:11:40;100330.0;;;16.6
58307;BMP280;44116;50.884;4.768;2023-07-31T06:13:40;100330.0;;;16.8
58307;BMP280;44116;50.884;4.768;2023-07-31T06:19:40;100320.0;;;16.6
58307;BMP280;44116;50.884;4.768;2023-07-31T06:21:40;100320.0;;;16.6
58307;BMP280;44116;50.884;4.768;2023-07-31T06:23:40;100320.0;;;16.7
58307;BMP280;44116;50.884;4.768;2023-07-31T06:25:40;100320.0;;;16.6
58307;BMP280;44116;50.884;4.768;2023-07-31T06:27:40;100330.0;;;16.5
58307;BMP280;44116;50.884;4.768;2023-07-31T06:29:40;100330.0;;;16.6
58307;BMP280;44116;50.884;4.768;2023-07-31T06:31:40;100330.0;;;16.5
58307;BMP280;44116;50.884;4.768;2023-07-31T06:33:39;100330.0;;;16.7
58307;BMP280;44116;50.884;4.768;2023-07-31T06:35:39;100330.0;;;16.6
58307;BMP280;44116;50.884;4.768;2023-07-31T06:37:39;100330.0;;;16.6
58307;BMP280;44116;50.884;4.768;2023-07-31T06:39:39;100320.0;;;16.8
58307;BMP280;44116;50.884;4.768;2023-07-31T06:41:39;100320.0;;;17.0
58307;BMP280;44116;50.884;4.768;2023-07-31T06:43:39;100320.0;;;17.0
58307;BMP280;44116;50.884;4.768;2023-07-31T06:45:39;100320.0;;;17.1
58307;BMP280;44116;50.884;4.768;2023-07-31T06:47:39;100330.0;;;16.9
58307;BMP280;44116;50.884;4.768;2023-07-31T06:49:39;100320.0;;;17.2
58307;BMP280;44116;50.884;4.768;2023-07-31T06:53:39;100320.0;;;17.2
58307;BMP280;44116;50.884;4.768;2023-07-31T06:55:39;100320.0;;;17.2
58307;BMP280;44116;50.884;4.768;2023-07-31T06:57:39;100320.0;;;17.3
58307;BMP280;44116;50.884;4.768;2023-07-31T06:59:38;100320.0;;;17.1
58307;BMP280;44116;50.884;4.768;2023-07-31T07:01:38;100320.0;;;17.1
58307;BMP280;44116;50.884;4.768;2023-07-31T07:03:38;100320.0;;;17.4
58307;BMP280;44116;50.884;4.768;2023-07-31T07:05:38;100320.0;;;17.2
58307;BMP280;44116;50.884;4.768;2023-07-31T07:07:38;100310.0;;;17.3
58307;BMP280;44116;50.884;4.768;2023-07-31T07:09:38;100310.0;;;17.4
58307;BMP280;44116;50.884;4.768;2023-07-31T07:11:38;100300.0;;;17.3
58307;BMP280;44116;50.884;4.768;2023-07-31T07:13:38;100310.0;;;17.3
58307;BMP280;44116;50.884;4.768;2023-07-31T07:15:38;100300.0;;;17.3
58307;BMP280;44116;50.884;4.768;2023-07-31T07:19:40;100310.0;;;17.4
58307;BMP280;44116;50.884;4.768;2023-07-31T07:21:38;100310.0;;;17.5
58307;BMP280;44116;50.884;4.768;2023-07-31T07:23:37;100310.0;;;17.3
58307;BMP280;44116;50.884;4.768;2023-07-31T07:25:37;100310.0;;;17.4
58307;BMP280;44116;50.884;4.768;2023-07-31T07:27:37;100310.0;;;17.4
58307;BMP280;44116;50.884;4.768;2023-07-31T07:29:37;100310.0;;;17.6
58307;BMP280;44116;50.884;4.768;2023-07-31T07:33:37;100310.0;;;17.4
58307;BMP280;44116;50.884;4.768;2023-07-31T07:35:37;100310.0;;;17.4
58307;BMP280;44116;50.884;4.768;2023-07-31T07:41:37;100330.0;;;17.6
58307;BMP280;44116;50.884;4.768;2023-07-31T07:43:37;100330.0;;;17.6
58307;BMP280;44116;50.884;4.768;2023-07-31T07:45:37;100330.0;;;17.7
58307;BMP280;44116;50.884;4.768;2023-07-31T07:47:37;100330.0;;;17.7
58307;BMP280;44116;50.884;4.768;2023-07-31T07:49:37;100330.0;;;17.5
58307;BMP280;44116;50.884;4.768;2023-07-31T07:51:36;100330.0;;;17.4
58307;BMP280;44116;50.884;4.768;2023-07-31T07:53:36;100320.0;;;17.6
58307;BMP280;44116;50.884;4.768;2023-07-31T07:55:36;100320.0;;;17.9
58307;BMP280;44116;50.884;4.768;2023-07-31T07:57:36;100330.0;;;17.5
58307;BMP280;44116;50.884;4.768;2023-07-31T07:59:36;100330.0;;;17.9
58307;BMP280;44116;50.884;4.768;2023-07-31T08:05:36;100340.0;;;17.7
58307;BMP280;44116;50.884;4.768;2023-07-31T08:07:36;100330.0;;;17.7
58307;BMP280;44116;50.884;4.768;2023-07-31T08:09:36;100340.0;;;17.7
58307;BMP280;44116;50.884;4.768;2023-07-31T08:11:36;100330.0;;;17.7
58307;BMP280;44116;50.884;4.768;2023-07-31T08:13:36;100340.0;;;17.9
58307;BMP280;44116;50.884;4.768;2023-07-31T08:15:36;100340.0;;;17.7
58307;BMP280;44116;50.884;4.768;2023-07-31T08:17:36;100340.0;;;17.9
58307;BMP280;44116;50.884;4.768;2023-07-31T08:19:36;100340.0;;;17.9
58307;BMP280;44116;50.884;4.768;2023-07-31T08:21:36;100350.0;;;18.0
58307;BMP280;44116;50.884;4.768;2023-07-31T08:23:35;100340.0;;;18.0
58307;BMP280;44116;50.884;4.768;2023-07-31T08:25:35;100340.0;;;17.6
58307;BMP280;44116;50.884;4.768;2023-07-31T08:27:35;100340.0;;;17.7
58307;BMP280;44116;50.884;4.768;2023-07-31T08:29:35;100340.0;;;18.0
58307;BMP280;44116;50.884;4.768;2023-07-31T08:31:35;100340.0;;;18.2
58307;BMP280;44116;50.884;4.768;2023-07-31T08:33:35;100350.0;;;18.2
58307;BMP280;44116;50.884;4.768;2023-07-31T08:37:35;100350.0;;;18.3
58307;BMP280;44116;50.884;4.768;2023-07-31T08:41:37;100360.0;;;18.1
58307;BMP280;44116;50.884;4.768;2023-07-31T08:43:35;100350.0;;;18.1
58307;BMP280;44116;50.884;4.768;2023-07-31T08:45:35;100360.0;;;18.2
58307;BMP280;44116;50.884;4.768;2023-07-31T08:47:35;100360.0;;;17.8
58307;BMP280;44116;50.884;4.768;2023-07-31T08:51:35;100360.0;;;18.1
58307;BMP280;44116;50.884;4.768;2023-07-31T08:53:35;100360.0;;;18.4
58307;BMP280;44116;50.884;4.768;2023-07-31T08:57:35;100360.0;;;18.4
58307;BMP280;44116;50.884;4.768;2023-07-31T08:59:35;100370.0;;;18.3
58307;BMP280;44116;50.884;4.768;2023-07-31T09:01:36;100360.0;;;18.4
58307;BMP280;44116;50.884;4.768;2023-07-31T09:03:35;100370.0;;;18.1
58307;BMP280;44116;50.884;4.768;2023-07-31T09:05:35;100370.0;;;18.3
58307;BMP280;44116;50.884;4.768;2023-07-31T09:07:35;100370.0;;;18.4
58307;BMP280;44116;50.884;4.768;2023-07-31T09:09:34;100370.0;;;18.5
58307;BMP280;44116;50.884;4.768;2023-07-31T09:11:34;100360.0;;;18.7
58307;BMP280;44116;50.884;4.768;2023-07-31T09:13:34;100370.0;;;18.6
58307;BMP280;44116;50.884;4.768;2023-07-31T09:15:35;100370.0;;;18.0
58307;BMP280;44116;50.884;4.768;2023-07-31T09:17:35;100370.0;;;18.2
58307;BMP280;44116;50.884;4.768;2023-07-31T09:19:35;100370.0;;;18.4
58307;BMP280;44116;50.884;4.768;2023-07-31T09:23:42;100360.0;;;18.4
58307;BMP280;44116;50.884;4.768;2023-07-31T09:25:34;100350.0;;;18.6
58307;BMP280;44116;50.884;4.768;2023-07-31T09:29:34;100360.0;;;18.4
58307;BMP280;44116;50.884;4.768;2023-07-31T09:31:38;100360.0;;;18.3
58307;BMP280;44116;50.884;4.768;2023-07-31T09:35:34;100360.0;;;18.4
58307;BMP280;44116;50.884;4.768;2023-07-31T09:39:44;100350.0;;;18.4
58307;BMP280;44116;50.884;4.768;2023-07-31T09:41:35;100350.0;;;18.5
58307;BMP280;44116;50.884;4.768;2023-07-31T09:43:34;100350.0;;;18.7
58307;BMP280;44116;50.884;4.768;2023-07-31T09:45:36;100350.0;;;18.8
58307;BMP280;44116;50.884;4.768;2023-07-31T09:47:34;100360.0;;;18.8
58307;BMP280;44116;50.884;4.768;2023-07-31T09:51:34;100350.0;;;19.0
58307;BMP280;44116;50.884;4.768;2023-07-31T09:53:34;100350.0;;;19.4
58307;BMP280;44116;50.884;4.768;2023-07-31T09:55:34;100350.0;;;19.1
58307;BMP280;44116;50.884;4.768;2023-07-31T09:57:34;100360.0;;;19.3
58307;BMP280;44116;50.884;4.768;2023-07-31T09:59:34;100350.0;;;19.3
58307;BMP280;44116;50.884;4.768;2023-07-31T10:01:34;100350.0;;;19.2
58307;BMP280;44116;50.884;4.768;2023-07-31T10:07:36;100350.0;;;19.2
58307;BMP280;44116;50.884;4.768;2023-07-31T10:09:34;100360.0;;;19.3
58307;BMP280;44116;50.884;4.768;2023-07-31T10:11:35;100350.0;;;19.2
58307;BMP280;44116;50.884;4.768;2023-07-31T10:13:34;100350.0;;;19.1
58307;BMP280;44116;50.884;4.768;2023-07-31T10:15:33;100340.0;;;19.1
58307;BMP280;44116;50.884;4.768;2023-07-31T10:17:33;100340.0;;;19.3
58307;BMP280;44116;50.884;4.768;2023-07-31T10:19:34;100340.0;;;19.2
58307;BMP280;44116;50.884;4.768;2023-07-31T10:23:33;100340.0;;;19.5
58307;BMP280;44116;50.884;4.768;2023-07-31T10:25:33;100340.0;;;19.4
58307;BMP280;44116;50.884;4.768;2023-07-31T10:29:33;100340.0;;;19.6
58307;BMP280;44116;50.884;4.768;2023-07-31T10:33:33;100320.0;;;19.4
58307;BMP280;44116;50.884;4.768;2023-07-31T10:35:33;100320.0;;;19.6
58307;BMP280;44116;50.884;4.768;2023-07-31T10:37:36;100330.0;;;19.3
58307;BMP280;44116;50.884;4.768;2023-07-31T10:39:34;100330.0;;;19.9
58307;BMP280;44116;50.884;4.768;2023-07-31T10:41:33;100330.0;;;20.0
58307;BMP280;44116;50.884;4.768;2023-07-31T10:47:37;100350.0;;;20.2
58307;BMP280;44116;50.884;4.768;2023-07-31T10:49:33;100350.0;;;20.5
58307;BMP280;44116;50.884;4.768;2023-07-31T10:51:34;100360.0;;;19.9
58307;BMP280;44116;50.884;4.768;2023-07-31T10:53:33;100360.0;;;20.2
58307;BMP280;44116;50.884;4.768;2023-07-31T10:57:34;100360.0;;;20.1
58307;BMP280;44116;50.884;4.768;2023-07-31T10:59:34;100370.0;;;20.2
58307;BMP280;44116;50.884;4.768;2023-07-31T11:03:41;100360.0;;;19.7
58307;BMP280;44116;50.884;4.768;2023-07-31T11:05:41;100360.0;;;19.5
58307;BMP280;44116;50.884;4.768;2023-07-31T11:09:33;100360.0;;;20.3
58307;BMP280;44116;50.884;4.768;2023-07-31T11:15:33;100350.0;;;20.1
58307;BMP280;44116;50.884;4.768;2023-07-31T11:17:33;100340.0;;;19.8
58307;BMP280;44116;50.884;4.768;2023-07-31T11:19:33;100350.0;;;19.8
58307;BMP280;44116;50.884;4.768;2023-07-31T11:21:33;100340.0;;;20.2
58307;BMP280;44116;50.884;4.768;2023-07-31T11:23:36;100350.0;;;20.1
58307;BMP280;44116;50.884;4.768;2023-07-31T11:25:33;100350.0;;;20.1
58307;BMP280;44116;50.884;4.768;2023-07-31T11:27:38;100340.0;;;20.3
58307;BMP280;44116;50.884;4.768;2023-07-31T11:29:33;100340.0;;;20.2
58307;BMP280;44116;50.884;4.768;2023-07-31T11:31:33;100340.0;;;20.3
58307;BMP280;44116;50.884;4.768;2023-07-31T11:33:34;100340.0;;;20.3
58307;BMP280;44116;50.884;4.768;2023-07-31T11:35:34;100330.0;;;20.2
58307;BMP280;44116;50.884;4.768;2023-07-31T11:37:41;100340.0;;;20.2
58307;BMP280;44116;50.884;4.768;2023-07-31T11:39:33;100320.0;;;20.6
58307;BMP280;44116;50.884;4.768;2023-07-31T11:41:34;100330.0;;;20.6
58307;BMP280;44116;50.884;4.768;2023-07-31T11:43:34;100320.0;;;20.5
58307;BMP280;44116;50.884;4.768;2023-07-31T11:45:34;100330.0;;;20.5
58307;BMP280;44116;50.884;4.768;2023-07-31T11:47:34;100320.0;;;20.4
58307;BMP280;44116;50.884;4.768;2023-07-31T11:49:34;100320.0;;;20.7
58307;BMP280;44116;50.884;4.768;2023-07-31T11:51:34;100320.0;;;20.8
58307;BMP280;44116;50.884;4.768;2023-07-31T11:53:35;100320.0;;;20.5
58307;BMP280;44116;50.884;4.768;2023-07-31T11:55:35;100330.0;;;20.2
58307;BMP280;44116;50.884;4.768;2023-07-31T11:57:34;100330.0;;;20.1
58307;BMP280;44116;50.884;4.768;2023-07-31T11:59:34;100330.0;;;20.3
58307;BMP280;44116;50.884;4.768;2023-07-31T12:01:34;100330.0;;;20.4
58307;BMP280;44116;50.884;4.768;2023-07-31T12:03:34;100320.0;;;20.5
58307;BMP280;44116;50.884;4.768;2023-07-31T12:05:34;100310.0;;;20.5
58307;BMP280;44116;50.884;4.768;2023-07-31T12:07:43;100310.0;;;20.5
58307;BMP280;44116;50.884;4.768;2023-07-31T12:09:34;100300.0;;;20.3
58307;BMP280;44116;50.884;4.768;2023-07-31T12:13:34;100290.0;;;20.4
58307;BMP280;44116;50.884;4.768;2023-07-31T12:15:34;100290.0;;;20.5
58307;BMP280;44116;50.884;4.768;2023-07-31T12:17:34;100280.0;;;20.8
58307;BMP280;44116;50.884;4.768;2023-07-31T12:19:34;100280.0;;;20.7
58307;BMP280;44116;50.884;4.768;2023-07-31T12:21:34;100280.0;;;20.8
58307;BMP280;44116;50.884;4.768;2023-07-31T12:23:35;100270.0;;;20.8
58307;BMP280;44116;50.884;4.768;2023-07-31T12:25:34;100270.0;;;20.8
58307;BMP280;44116;50.884;4.768;2023-07-31T12:27:34;100260.0;;;21.0
58307;BMP280;44116;50.884;4.768;2023-07-31T12:29:34;100260.0;;;21.6
58307;BMP280;44116;50.884;4.768;2023-07-31T12:31:34;100270.0;;;21.5
58307;BMP280;44116;50.884;4.768;2023-07-31T12:33:35;100280.0;;;21.5
58307;BMP280;44116;50.884;4.768;2023-07-31T12:35:34;100280.0;;;20.8
58307;BMP280;44116;50.884;4.768;2023-07-31T12:37:34;100280.0;;;20.8
58307;BMP280;44116;50.884;4.768;2023-07-31T12:39:34;100280.0;;;21.0
58307;BMP280;44116;50.884;4.768;2023-07-31T12:41:34;100270.0;;;20.9
58307;BMP280;44116;50.884;4.768;2023-07-31T12:43:34;100270.0;;;20.8
58307;BMP280;44116;50.884;4.768;2023-07-31T12:45:34;100280.0;;;20.9
58307;BMP280;44116;50.884;4.768;2023-07-31T12:47:34;100270.0;;;21.0
58307;BMP280;44116;50.884;4.768;2023-07-31T12:49:34;100270.0;;;21.0
58307;BMP280;44116;50.884;4.768;2023-07-31T12:51:34;100260.0;;;20.9
58307;BMP280;44116;50.884;4.768;2023-07-31T12:53:34;100260.0;;;20.9
58307;BMP280;44116;50.884;4.768;2023-07-31T12:55:34;100260.0;;;20.8
58307;BMP280;44116;50.884;4.768;2023-07-31T12:57:34;100260.0;;;20.8
58307;BMP280;44116;50.884;4.768;2023-07-31T12:59:34;100260.0;;;20.9
58307;BMP280;44116;50.884;4.768;2023-07-31T13:01:34;100260.0;;;20.7
58307;BMP280;44116;50.884;4.768;2023-07-31T13:05:34;100260.0;;;20.3
58307;BMP280;44116;50.884;4.768;2023-07-31T13:07:34;100260.0;;;20.7
58307;BMP280;44116;50.884;4.768;2023-07-31T13:09:34;100260.0;;;21.0
58307;BMP280;44116;50.884;4.768;2023-07-31T13:11:34;100270.0;;;21.0
58307;BMP280;44116;50.884;4.768;2023-07-31T13:13:34;100260.0;;;20.5
58307;BMP280;44116;50.884;4.768;2023-07-31T13:15:34;100260.0;;;20.8
58307;BMP280;44116;50.884;4.768;2023-07-31T13:17:34;100250.0;;;21.0
58307;BMP280;44116;50.884;4.768;2023-07-31T13:19:34;100250.0;;;20.9
58307;BMP280;44116;50.884;4.768;2023-07-31T13:21:34;100260.0;;;21.0
58307;BMP280;44116;50.884;4.768;2023-07-31T13:23:34;100260.0;;;20.6
58307;BMP280;44116;50.884;4.768;2023-07-31T13:25:34;100260.0;;;20.7
58307;BMP280;44116;50.884;4.768;2023-07-31T13:27:34;100260.0;;;20.5
58307;BMP280;44116;50.884;4.768;2023-07-31T13:29:34;100250.0;;;20.3
58307;BMP280;44116;50.884;4.768;2023-07-31T13:31:34;100260.0;;;20.2
58307;BMP280;44116;50.884;4.768;2023-07-31T13:33:34;100260.0;;;20.0
58307;BMP280;44116;50.884;4.768;2023-07-31T13:35:34;100260.0;;;19.8
58307;BMP280;44116;50.884;4.768;2023-07-31T13:37:34;100250.0;;;19.9